LFOP/URO METAR and TAF weather

Enter ICAO airport designator
Station Type Date Time Source
LFOP METAR 2020/01/24 03:00 UTC NOAA

LFOP 240300Z AUTO 10003KT 2700 BR OVC003 01/01 Q1023


Station Type Date Time Source
LFOP Decoded METAR 2020/01/24 03:00 UTC NOAA

Rouen, France (LFOP) 49-23N 001-11E 157M
Jan 23, 2020 - 10:00 PM EST / 2020.01.24 0300 UTC
Wind: from the E (100 degrees) at 3 MPH (3 KT):0
Visibility: 1 mile(s):0
Sky conditions: overcast
Weather: mist
Temperature: 33 F (1 C)
Dew Point: 33 F (1 C)
Relative Humidity: 100%
Pressure (altimeter): 30.21 in. Hg (1023 hPa)
ob: LFOP 240300Z AUTO 10003KT 2700 BR OVC003 01/01 Q1023
cycle: 3

Station Type Date Time Source
LFOP TAF 2020/01/23 21:09 UTC NOAA

TAF TAF LFOP 232101Z 2321/2418 CNL

Example: see airport list